Terminal Aerodrome Forecast
Issued by NWS Wilmington, OH

Current Version | Previous Version | Text Only | Print | Product List | Glossary Off
Versions: 1 2 3 4 5 6 7 8 9 10 11 12 13 14 15 16 17 18 19 20 21 22 23 24 25 26 27 28

000
FTUS41 KILN 230856 AAA
TAFCVG
TAF AMD
KCVG 230856Z 2309/2412 VRB03KT P6SM SCT200
     FM231400 VRB03KT P6SM FEW040 SCT250
     FM240400 05006KT P6SM BKN120=

USA.gov is the U.S. government's official web portal to all federal, state and local government web resources and services.